White Rock, New Mexico
Current Conditions -  °F | °C
As of 6:15 PM on Tuesday 21 Oct 2014 (Local Time) from KLAM Reporting Station
Overcast Overcast  
Wind Chill: 55°   Ceiling: 3900
Heat Index: 55°   Visibility: 10mi
Dew Point: 43°   Wind: 0mph
Humidity: 63%   Direction: NA
Pressure: 30.14"   Gusts: NA
Location:  35.8375°N, 106.349°W
Report Text: KLAM 220015Z AUTO 00000KT 10SM BKN039 BKN047 OVC060 13/06 A3014 RMK AO2 T01300061
Loading
Personal Weather Stations






























Interactive Weather Map
Tropical Storm Tracking
New forecast layout! Learn more

10-Day Weather Forecast

Advertisements
Track Severe Weather on mobile